Weather at Ioannis Kapodistrias International Airport

Public forecast

Using degrees Celsius for public forecast. Weather courtesy of forecast.io.

Current aviation weather report (METAR) for Ioannis Kapodistrias International Airport

Retrieved 2021/01/25 03:20 UTC (0 seconds ago):

LGKR 250320Z 26013KT 9999 FEW018 SCT030 13/10 Q1002 NOSIG

Aviation forecast (TAF) for Ioannis Kapodistrias International Airport

Retrieved 2021-01-25 00:12 UTC (3 hours ago):

TAF LGKR 242300Z 2500/2524 23016G26KT 9999 FEW015 BKN025 BKN070 PROB40 TEMPO 2500/2508 5000 RA SCT012 FEW018TCU BKN020 PROB40 TEMPO 2500/2506 3000 TSRA SCT010 FEW018CB BKN020 BKN070 BECMG 2500/2502 31014KT BECMG 2513/2515 17010KT